Time;durP1;ratioP1;P1;durP2;ratioP2;P2;SDS_P1;SDS_P2;PMS_P1;PMS_P2;Temp;Humidity;BMP_temperature;BMP_pressure;BME280_temperature;BME280_humidity;BME280_pressure;Samples;Min_cycle;Max_cycle;Signal;HPM_P1;HPM_P2
2022/11/02 00:00:39;;;;;;;6.03;1.75;;;13.00;99.90;;;;;;4951421;28;21315;-68
2022/11/02 00:03:05;;;;;;;9.60;2.88;;;12.90;99.90;;;;;;4951895;29;20549;-68
2022/11/02 00:05:31;;;;;;;6.78;2.15;;;12.90;99.90;;;;;;4954840;29;20047;-68
2022/11/02 00:07:57;;;;;;;6.88;1.90;;;12.80;99.90;;;;;;4953814;29;20070;-67
2022/11/02 00:10:23;;;;;;;4.75;1.80;;;12.70;99.90;;;;;;4946606;29;20047;-66
2022/11/02 00:12:50;;;;;;;5.57;1.90;;;12.70;99.90;;;;;;4955269;28;20097;-66
2022/11/02 00:15:16;;;;;;;11.45;2.30;;;12.70;99.90;;;;;;4954093;28;20039;-68
2022/11/02 00:17:44;;;;;;;6.93;2.33;;;12.70;99.90;;;;;;4947570;29;20491;-68
2022/11/02 00:20:11;;;;;;;9.52;2.42;;;12.60;99.90;;;;;;4944160;29;20079;-68
2022/11/02 00:22:38;;;;;;;10.60;2.00;;;12.70;99.90;;;;;;4953890;28;20517;-68
2022/11/02 00:25:06;;;;;;;8.50;1.95;;;12.70;99.90;;;;;;4949696;28;20044;-68
2022/11/02 00:27:34;;;;;;;5.95;1.60;;;12.70;99.90;;;;;;4946088;29;20031;-68
2022/11/02 00:29:59;;;;;;;9.10;2.13;;;12.70;99.90;;;;;;4954121;29;20047;-69
2022/11/02 00:32:26;;;;;;;7.35;1.77;;;12.70;99.90;;;;;;4954319;28;20410;-68
2022/11/02 00:34:51;;;;;;;6.70;2.80;;;12.70;99.90;;;;;;4947943;29;20075;-69
2022/11/02 00:37:18;;;;;;;8.55;2.63;;;12.60;99.90;;;;;;4941708;29;20042;-69
2022/11/02 00:39:43;;;;;;;11.57;2.25;;;12.70;99.90;;;;;;4955085;28;20387;-69
2022/11/02 00:42:10;;;;;;;10.75;2.85;;;12.70;99.90;;;;;;4945146;28;20523;-68
2022/11/02 00:44:35;;;;;;;9.85;2.55;;;12.60;99.90;;;;;;4941864;29;20047;-68
2022/11/02 00:47:01;;;;;;;13.82;2.58;;;12.70;99.90;;;;;;4953603;29;20038;-68
2022/11/02 00:49:26;;;;;;;9.88;2.70;;;12.70;99.90;;;;;;4951227;29;20086;-68
2022/11/02 00:51:52;;;;;;;11.40;3.08;;;12.60;99.90;;;;;;4938836;29;20036;-68
2022/11/02 00:54:17;;;;;;;14.25;2.95;;;12.60;99.90;;;;;;4953318;29;20095;-68
2022/11/02 00:56:43;;;;;;;13.80;3.38;;;12.60;99.90;;;;;;4953891;29;20093;-68
2022/11/02 00:59:09;;;;;;;12.25;2.97;;;12.60;99.90;;;;;;4950498;29;20031;-68
2022/11/02 01:01:34;;;;;;;12.75;3.00;;;12.50;99.90;;;;;;4945712;29;20051;-68
2022/11/02 01:04:00;;;;;;;11.43;3.00;;;12.50;99.90;;;;;;4954463;29;20039;-69
2022/11/02 01:06:25;;;;;;;12.25;2.70;;;12.50;99.90;;;;;;4951671;29;20176;-69
2022/11/02 01:08:52;;;;;;;10.45;2.72;;;12.60;99.90;;;;;;4945351;29;20044;-68
2022/11/02 01:11:53;;;;;;;12.55;3.65;;;12.60;99.90;;;;;;4955454;29;20031;-75
2022/11/02 01:14:19;;;;;;;11.55;2.50;;;12.60;99.90;;;;;;4946420;29;20051;-68
2022/11/02 01:16:46;;;;;;;10.55;2.67;;;12.70;99.90;;;;;;4940686;29;20050;-68
2022/11/02 01:19:11;;;;;;;10.55;2.60;;;12.70;99.90;;;;;;4952125;29;20043;-68
2022/11/02 01:21:37;;;;;;;16.50;3.08;;;12.80;99.90;;;;;;4937714;29;20045;-68
2022/11/02 01:24:03;;;;;;;8.82;2.42;;;12.90;99.90;;;;;;4943811;29;20043;-68
2022/11/02 01:26:28;;;;;;;8.98;3.40;;;12.90;99.90;;;;;;4951187;28;20154;-68
2022/11/02 01:28:54;;;;;;;8.70;2.25;;;12.90;99.90;;;;;;4952652;29;20049;-68
2022/11/02 01:31:20;;;;;;;7.13;2.25;;;13.10;99.90;;;;;;4952358;28;20035;-64
2022/11/02 01:33:46;;;;;;;13.02;2.42;;;13.00;99.90;;;;;;4952396;29;20054;-67
2022/11/02 01:36:14;;;;;;;9.43;2.58;;;13.00;99.90;;;;;;4952038;29;20045;-67
2022/11/02 01:38:40;;;;;;;9.55;2.30;;;12.90;99.90;;;;;;4953205;29;20039;-67
2022/11/02 01:41:05;;;;;;;10.10;2.85;;;13.00;99.90;;;;;;4952466;28;20045;-67
2022/11/02 01:43:33;;;;;;;11.85;3.00;;;13.00;99.90;;;;;;4936211;28;20031;-67
2022/11/02 01:46:11;;;;;;;11.60;2.40;;;12.90;99.90;;;;;;4948844;29;20067;-67
2022/11/02 01:49:00;;;;;;;10.05;2.50;;;12.90;99.90;;;;;;4943371;29;20050;-66
2022/11/02 01:51:30;;;;;;;13.32;2.38;;;13.00;99.90;;;;;;4937890;29;20054;-66
2022/11/02 01:53:59;;;;;;;11.80;2.53;;;12.90;99.90;;;;;;4952558;29;20039;-66
2022/11/02 01:56:30;;;;;;;12.32;2.80;;;13.00;99.90;;;;;;4936926;29;20047;-67
2022/11/02 01:59:01;;;;;;;11.85;2.50;;;13.00;99.90;;;;;;4943646;28;20091;-66
2022/11/02 02:01:29;;;;;;;10.88;2.50;;;13.00;99.90;;;;;;4945803;28;20122;-66
2022/11/02 02:03:56;;;;;;;8.07;2.40;;;13.20;99.90;;;;;;4955747;29;20498;-66
2022/11/02 02:06:24;;;;;;;12.43;2.50;;;13.30;99.90;;;;;;4944913;28;20065;-66
2022/11/02 02:08:53;;;;;;;10.90;2.22;;;13.40;99.90;;;;;;4953244;28;20039;-66
2022/11/02 02:11:33;;;;;;;11.68;2.80;;;13.50;99.90;;;;;;4960491;23;20055;-67
2022/11/02 02:14:07;;;;;;;11.50;2.20;;;13.30;99.90;;;;;;4950118;28;20071;-66
2022/11/02 02:16:52;;;;;;;14.85;3.03;;;13.30;99.90;;;;;;4946162;29;20044;-66
2022/11/02 02:19:39;;;;;;;8.30;2.85;;;13.30;99.90;;;;;;4955825;29;20050;-67
2022/11/02 02:22:23;;;;;;;16.58;2.40;;;13.40;99.90;;;;;;4968628;28;20075;-65
2022/11/02 02:25:20;;;;;;;6.55;2.08;;;13.40;99.90;;;;;;4959573;23;20035;-65
2022/11/02 02:28:14;;;;;;;10.82;2.88;;;13.50;99.90;;;;;;4934963;29;20067;-67
2022/11/02 02:31:02;;;;;;;11.32;2.58;;;13.40;99.90;;;;;;4942021;29;20124;-67
2022/11/02 02:33:42;;;;;;;14.70;2.47;;;13.20;99.90;;;;;;4934620;29;20062;-67
2022/11/02 02:36:33;;;;;;;13.32;2.72;;;13.10;99.90;;;;;;4933042;29;20540;-67
2022/11/02 02:39:25;;;;;;;12.77;2.50;;;13.00;99.90;;;;;;4944740;28;20089;-67
2022/11/02 02:42:20;;;;;;;8.45;2.25;;;13.00;99.90;;;;;;4946103;29;20047;-67
2022/11/02 02:45:13;;;;;;;8.45;2.22;;;12.90;99.90;;;;;;4954047;28;20090;-67
2022/11/02 02:47:47;;;;;;;6.65;2.33;;;12.90;99.90;;;;;;4940377;29;20051;-67
2022/11/02 02:50:25;;;;;;;9.73;2.20;;;12.80;99.90;;;;;;4945566;29;20090;-66
2022/11/02 02:52:52;;;;;;;7.63;2.22;;;12.80;99.90;;;;;;4951967;29;20049;-67
2022/11/02 02:55:23;;;;;;;6.18;1.90;;;12.70;99.90;;;;;;4952999;28;20055;-66
2022/11/02 02:57:50;;;;;;;5.22;1.60;;;12.80;99.90;;;;;;4950873;29;20486;-67
2022/11/02 03:00:17;;;;;;;6.10;1.35;;;12.70;99.90;;;;;;4957066;28;20126;-67
2022/11/02 03:02:59;;;;;;;8.38;1.75;;;12.70;99.90;;;;;;4956875;28;20047;-67
2022/11/02 03:05:28;;;;;;;5.85;1.23;;;12.70;99.90;;;;;;4945806;28;20086;-67
2022/11/02 03:07:56;;;;;;;5.25;1.33;;;12.50;99.90;;;;;;4952779;29;20039;-67
2022/11/02 03:10:34;;;;;;;5.07;1.65;;;12.40;99.90;;;;;;4955565;29;20425;-67
2022/11/02 03:13:28;;;;;;;3.63;1.17;;;12.30;99.90;;;;;;4946443;28;20098;-66
2022/11/02 03:16:00;;;;;;;5.13;1.10;;;12.10;99.90;;;;;;4955140;28;20050;-67
2022/11/02 03:18:45;;;;;;;;;;;12.00;99.90;;;;;;4957292;29;20134;-66
2022/11/02 03:21:29;;;;;;;3.97;1.23;;;11.80;99.90;;;;;;4952442;29;19922;-67
2022/11/02 03:24:29;;;;;;;3.78;1.30;;;11.80;99.90;;;;;;4952180;29;20082;-67
2022/11/02 03:27:16;;;;;;;4.50;1.00;;;11.70;99.90;;;;;;4937347;29;20047;-67
2022/11/02 03:29:58;;;;;;;4.22;1.35;;;11.60;99.90;;;;;;4944395;29;20054;-67
2022/11/02 03:32:43;;;;;;;3.10;1.00;;;11.50;99.90;;;;;;4949429;29;20039;-67
2022/11/02 03:35:40;;;;;;;8.05;1.30;;;11.60;99.90;;;;;;4956607;28;20098;-67
2022/11/02 03:38:28;;;;;;;6.85;1.13;;;11.60;99.90;;;;;;4951640;29;20086;-66
2022/11/02 03:40:54;;;;;;;4.20;1.05;;;11.60;99.90;;;;;;4944088;29;20051;-66
2022/11/02 03:43:22;;;;;;;6.30;1.63;;;11.60;99.90;;;;;;4956382;28;20494;-66
2022/11/02 03:45:52;;;;;;;4.30;1.40;;;11.60;99.90;;;;;;4952648;28;20110;-66
2022/11/02 03:48:20;;;;;;;3.83;1.15;;;11.60;99.90;;;;;;4955819;28;20414;-66
2022/11/02 03:50:49;;;;;;;7.65;1.73;;;11.50;99.90;;;;;;4955128;28;20039;-67
2022/11/02 03:53:31;;;;;;;4.38;1.40;;;11.50;99.90;;;;;;4956164;28;20054;-66
2022/11/02 03:56:07;;;;;;;5.68;1.60;;;11.50;99.90;;;;;;4946681;28;20050;-67
2022/11/02 03:58:34;;;;;;;5.47;1.38;;;11.50;99.90;;;;;;4949033;29;20527;-66
2022/11/02 04:01:04;;;;;;;5.75;1.50;;;11.50;99.90;;;;;;4956083;28;20118;-66
2022/11/02 04:03:32;;;;;;;5.80;1.83;;;11.60;99.90;;;;;;4946273;28;20047;-67
2022/11/02 04:05:57;;;;;;;8.40;2.03;;;11.60;99.90;;;;;;4952313;28;20040;-66
2022/11/02 04:08:37;;;;;;;7.85;1.80;;;11.60;99.90;;;;;;4954477;29;20053;-66
2022/11/02 04:16:33;;;;;;;7.15;1.90;;;11.60;99.90;;;;;;4948987;29;20069;-66
2022/11/02 04:25:14;;;;;;;6.95;1.85;;;11.50;99.90;;;;;;4949391;29;20058;-67
2022/11/02 04:27:12;;;;;;;5.30;1.98;;;11.50;99.90;;;;;;4955327;29;20074;-66
2022/11/02 04:29:38;;;;;;;5.68;2.00;;;11.60;99.90;;;;;;4944359;28;20496;-67
2022/11/02 04:32:03;;;;;;;6.32;1.90;;;11.70;99.90;;;;;;4943386;28;20039;-67
2022/11/02 04:34:29;;;;;;;8.45;2.10;;;11.70;99.90;;;;;;4948635;28;20409;-66
2022/11/02 04:36:54;;;;;;;6.25;1.98;;;11.70;99.90;;;;;;4943672;28;20047;-66
2022/11/02 04:39:20;;;;;;;10.90;2.75;;;11.70;99.90;;;;;;4954353;28;20082;-67
2022/11/02 04:41:46;;;;;;;7.40;2.33;;;11.90;99.90;;;;;;4954195;28;20485;-67
2022/11/02 04:44:16;;;;;;;8.55;1.90;;;12.00;99.90;;;;;;4942699;28;20142;-67
2022/11/02 04:46:43;;;;;;;8.15;1.98;;;11.90;99.90;;;;;;4950918;28;20048;-67
2022/11/02 04:49:10;;;;;;;7.07;2.42;;;11.80;99.90;;;;;;4955257;28;20039;-67
2022/11/02 04:51:39;;;;;;;8.70;2.03;;;11.80;99.90;;;;;;4951919;28;20085;-66
2022/11/02 04:54:04;;;;;;;8.90;2.28;;;11.80;99.90;;;;;;4946766;28;20050;-67
2022/11/02 04:56:30;;;;;;;3.95;1.52;;;11.70;99.90;;;;;;4952749;28;20047;-67
2022/11/02 04:58:58;;;;;;;5.85;1.67;;;11.80;99.90;;;;;;4955102;28;20497;-67
2022/11/02 05:01:26;;;;;;;8.70;2.22;;;11.70;99.90;;;;;;4954651;28;20035;-67
2022/11/02 05:03:53;;;;;;;10.02;2.22;;;11.80;99.90;;;;;;4944730;28;20043;-66
2022/11/02 05:06:20;;;;;;;8.48;2.55;;;11.70;99.90;;;;;;4951891;29;20081;-66
2022/11/02 05:08:46;;;;;;;9.63;2.40;;;11.70;99.90;;;;;;4947652;28;20055;-66
2022/11/02 05:11:12;;;;;;;7.03;1.60;;;11.70;99.90;;;;;;4951734;29;20403;-66
2022/11/02 05:13:39;;;;;;;6.68;1.83;;;11.60;99.90;;;;;;4954766;28;20445;-66
2022/11/02 05:16:05;;;;;;;11.45;2.22;;;11.60;99.90;;;;;;4954712;28;20513;-66
2022/11/02 05:18:31;;;;;;;5.15;1.60;;;11.70;99.90;;;;;;4949365;28;20115;-66
2022/11/02 05:20:58;;;;;;;8.65;1.80;;;11.70;99.90;;;;;;4945607;29;20118;-66
2022/11/02 05:23:25;;;;;;;11.15;2.33;;;11.70;99.90;;;;;;4953906;29;20066;-67
2022/11/02 05:26:00;;;;;;;7.68;2.10;;;11.80;99.90;;;;;;4951153;28;20520;-67
2022/11/02 05:28:27;;;;;;;9.57;1.90;;;11.90;99.90;;;;;;4952823;29;20075;-66
2022/11/02 05:30:54;;;;;;;11.38;2.20;;;11.80;99.90;;;;;;4954085;28;20102;-66
2022/11/02 05:33:20;;;;;;;9.95;2.08;;;11.80;99.90;;;;;;4946806;28;20040;-67
2022/11/02 05:35:46;;;;;;;9.18;2.38;;;11.80;99.90;;;;;;4952844;28;20093;-67
2022/11/02 05:38:12;;;;;;;13.90;2.58;;;11.70;99.90;;;;;;4954261;28;20043;-67
2022/11/02 05:40:39;;;;;;;10.98;2.83;;;11.70;99.90;;;;;;4950027;28;20097;-66
2022/11/02 05:43:06;;;;;;;11.85;2.75;;;11.70;99.90;;;;;;4946607;29;20490;-66
2022/11/02 05:45:31;;;;;;;11.88;2.70;;;11.60;99.90;;;;;;4950266;28;20043;-66
2022/11/02 05:48:00;;;;;;;10.60;2.30;;;11.60;99.90;;;;;;4953896;28;20050;-67
2022/11/02 05:50:26;;;;;;;7.07;2.13;;;11.50;99.90;;;;;;4954134;28;20046;-67
2022/11/02 05:52:52;;;;;;;13.65;3.10;;;11.50;99.90;;;;;;4945703;28;20085;-67
2022/11/02 05:55:17;;;;;;;8.10;2.38;;;11.50;99.90;;;;;;4950776;28;20125;-66
2022/11/02 05:57:48;;;;;;;11.25;2.40;;;11.50;99.90;;;;;;4950604;28;20066;-66
2022/11/02 06:00:14;;;;;;;14.02;3.22;;;11.50;99.90;;;;;;4936427;28;20047;-66
2022/11/02 06:02:40;;;;;;;7.18;2.30;;;11.60;99.90;;;;;;4946337;28;20040;-67
2022/11/02 06:05:06;;;;;;;6.90;2.25;;;11.50;99.90;;;;;;4941426;29;20062;-67
2022/11/02 06:07:32;;;;;;;10.20;2.42;;;11.60;99.90;;;;;;4950600;28;20054;-67
2022/11/02 06:09:57;;;;;;;14.30;3.40;;;11.70;99.90;;;;;;4950320;28;20062;-65
2022/11/02 06:12:23;;;;;;;9.55;2.75;;;11.70;99.90;;;;;;4946828;29;20074;-67
2022/11/02 06:14:48;;;;;;;11.30;2.95;;;11.70;99.90;;;;;;4939966;29;20066;-68
2022/11/02 06:17:14;;;;;;;9.70;2.67;;;11.60;99.90;;;;;;4935378;29;20043;-66
2022/11/02 06:19:39;;;;;;;12.52;2.50;;;11.80;99.90;;;;;;4942501;28;20405;-66
2022/11/02 06:22:05;;;;;;;9.00;2.35;;;11.70;99.90;;;;;;4949626;28;20035;-66
2022/11/02 06:24:31;;;;;;;13.68;2.55;;;11.70;99.90;;;;;;4947774;28;20090;-67
2022/11/02 06:26:56;;;;;;;11.77;2.95;;;11.60;99.90;;;;;;4946019;28;20047;-67
2022/11/02 06:29:22;;;;;;;10.63;2.95;;;11.60;99.90;;;;;;4951877;28;20121;-67
2022/11/02 06:31:47;;;;;;;15.50;2.92;;;11.60;99.90;;;;;;4950716;28;20039;-66
2022/11/02 06:34:13;;;;;;;8.65;2.33;;;11.50;99.90;;;;;;4944706;28;20521;-66
2022/11/02 06:36:38;;;;;;;13.77;3.20;;;11.50;99.90;;;;;;4953348;28;20038;-67
2022/11/02 06:39:04;;;;;;;11.38;2.67;;;11.40;99.90;;;;;;4953548;28;20035;-66
2022/11/02 06:41:30;;;;;;;9.98;2.90;;;11.30;99.90;;;;;;4942823;28;20039;-66
2022/11/02 06:43:55;;;;;;;12.75;3.10;;;11.30;99.90;;;;;;4942126;28;20625;-64
2022/11/02 06:46:21;;;;;;;11.55;3.30;;;11.30;99.90;;;;;;4950003;28;20035;-65
2022/11/02 06:48:47;;;;;;;17.73;3.72;;;11.30;99.90;;;;;;4942369;28;20046;-66
2022/11/02 06:51:13;;;;;;;12.75;2.92;;;11.20;99.90;;;;;;4939371;29;20500;-66
2022/11/02 06:53:39;;;;;;;11.35;2.83;;;11.20;99.90;;;;;;4950164;28;20035;-67
2022/11/02 06:56:05;;;;;;;12.90;2.80;;;11.20;99.90;;;;;;4950475;28;20051;-66
2022/11/02 06:58:31;;;;;;;12.18;3.13;;;11.20;99.90;;;;;;4943536;29;20043;-67
2022/11/02 07:01:02;;;;;;;14.40;2.70;;;11.20;99.90;;;;;;4945935;29;20038;-65
2022/11/02 07:03:28;;;;;;;12.75;2.88;;;11.20;99.90;;;;;;4950454;28;20083;-65
2022/11/02 07:05:54;;;;;;;10.77;2.70;;;11.20;99.90;;;;;;4940240;28;20093;-66
2022/11/02 07:08:20;;;;;;;10.85;3.20;;;11.30;99.90;;;;;;4949142;28;20486;-66
2022/11/02 07:10:46;;;;;;;11.60;2.88;;;11.30;99.90;;;;;;4950630;28;20035;-66
2022/11/02 07:13:12;;;;;;;10.20;2.72;;;11.30;99.90;;;;;;4951318;28;20039;-66
2022/11/02 07:15:38;;;;;;;14.23;2.92;;;11.40;99.90;;;;;;4939017;28;20036;-67
2022/11/02 07:18:05;;;;;;;8.18;2.25;;;11.50;99.90;;;;;;4938847;29;20035;-66
2022/11/02 07:20:31;;;;;;;13.07;2.80;;;11.50;99.90;;;;;;4951299;29;20043;-67
2022/11/02 07:22:59;;;;;;;8.88;2.60;;;11.60;99.90;;;;;;4939139;28;20044;-66
2022/11/02 07:25:26;;;;;;;16.48;3.63;;;11.70;99.90;;;;;;4952448;28;20038;-66
2022/11/02 07:27:52;;;;;;;14.23;2.90;;;11.70;99.90;;;;;;4955782;28;20234;-66
2022/11/02 07:30:19;;;;;;;15.27;2.72;;;11.80;99.90;;;;;;4950976;28;20027;-66
2022/11/02 07:32:45;;;;;;;13.98;2.78;;;11.80;99.90;;;;;;4949092;28;20069;-67
2022/11/02 07:35:12;;;;;;;12.43;2.58;;;11.90;99.90;;;;;;4954800;29;20039;-66
2022/11/02 07:37:38;;;;;;;12.00;2.72;;;12.00;99.90;;;;;;4946577;28;20050;-66
2022/11/02 07:40:06;;;;;;;12.80;2.42;;;12.00;99.90;;;;;;4947566;29;20561;-66
2022/11/02 07:42:32;;;;;;;14.23;2.92;;;12.00;99.90;;;;;;4949591;28;20039;-67
2022/11/02 07:44:58;;;;;;;9.88;2.40;;;12.00;99.90;;;;;;4956301;28;20042;-66
2022/11/02 07:47:24;;;;;;;9.27;2.15;;;12.00;99.90;;;;;;4956322;28;20039;-66
2022/11/02 07:49:49;;;;;;;11.95;2.78;;;12.10;99.90;;;;;;4951134;28;20042;-67
2022/11/02 07:52:15;;;;;;;12.60;2.28;;;12.10;99.90;;;;;;4955285;28;20032;-66
2022/11/02 07:54:40;;;;;;;11.00;2.42;;;12.10;99.90;;;;;;4956194;28;20047;-66
2022/11/02 07:57:06;;;;;;;13.68;2.65;;;12.20;99.90;;;;;;4951212;28;20071;-67
2022/11/02 07:59:32;;;;;;;7.18;2.10;;;12.30;99.90;;;;;;4955858;28;20043;-67
2022/11/02 08:01:57;;;;;;;12.95;2.40;;;12.30;99.90;;;;;;4955056;28;20047;-67
2022/11/02 08:04:23;;;;;;;11.20;2.40;;;12.30;99.90;;;;;;4945370;28;20039;-67
2022/11/02 08:06:48;;;;;;;6.90;1.88;;;12.30;99.90;;;;;;4947937;28;20042;-67
2022/11/02 08:09:14;;;;;;;13.02;2.30;;;12.30;99.90;;;;;;4955837;28;20544;-66
2022/11/02 08:11:40;;;;;;;8.50;2.00;;;12.30;99.90;;;;;;4945453;29;20039;-66
2022/11/02 08:14:06;;;;;;;8.32;2.10;;;12.30;99.90;;;;;;4954081;28;20540;-67
2022/11/02 08:16:32;;;;;;;8.77;2.30;;;12.30;99.90;;;;;;4955781;28;20039;-67
2022/11/02 08:18:58;;;;;;;10.35;2.08;;;12.30;99.90;;;;;;4955738;28;20037;-66
2022/11/02 08:21:24;;;;;;;8.27;2.20;;;12.30;99.90;;;;;;4942834;28;20429;-66
2022/11/02 08:23:50;;;;;;;14.80;2.28;;;12.30;99.90;;;;;;4950396;28;20110;-67
2022/11/02 08:26:16;;;;;;;7.15;2.45;;;12.20;99.90;;;;;;4979900;23;20126;-70
2022/11/02 08:28:41;;;;;;;11.40;1.90;;;12.20;99.90;;;;;;4942970;29;20047;-70
2022/11/02 08:31:16;;;;;;;10.15;2.25;;;12.10;99.90;;;;;;4947309;29;20055;-69
2022/11/02 08:33:44;;;;;;;10.73;2.33;;;12.10;99.90;;;;;;4950007;29;20035;-69
2022/11/02 08:36:11;;;;;;;14.38;2.30;;;12.30;99.90;;;;;;4944264;28;20172;-69
2022/11/02 08:38:38;;;;;;;10.00;2.17;;;12.30;99.90;;;;;;4952870;29;20054;-69
2022/11/02 08:41:04;;;;;;;10.13;2.13;;;12.40;99.90;;;;;;4954647;28;20035;-70
2022/11/02 08:43:30;;;;;;;9.40;2.15;;;12.40;99.90;;;;;;4941120;29;20062;-70
2022/11/02 08:45:59;;;;;;;8.48;1.77;;;12.30;99.90;;;;;;4946652;28;20070;-68
2022/11/02 08:48:25;;;;;;;10.07;1.83;;;12.30;99.90;;;;;;4948497;29;20093;-69
2022/11/02 08:50:51;;;;;;;5.57;1.98;;;12.30;99.90;;;;;;4953142;29;20090;-69
2022/11/02 08:53:17;;;;;;;7.50;1.63;;;12.30;99.90;;;;;;4953303;29;20043;-70
2022/11/02 08:55:42;;;;;;;9.60;1.90;;;12.40;99.90;;;;;;4948007;29;20482;-70
2022/11/02 08:58:09;;;;;;;11.52;1.80;;;12.50;99.90;;;;;;4950665;29;20394;-71
2022/11/02 09:00:35;;;;;;;11.63;2.10;;;12.60;99.90;;;;;;4953982;29;20051;-69
2022/11/02 09:03:05;;;;;;;11.88;2.55;;;12.70;99.90;;;;;;4939950;29;20051;-70
2022/11/02 09:05:32;;;;;;;9.70;1.88;;;12.70;99.90;;;;;;4945673;29;20093;-71
2022/11/02 09:08:00;;;;;;;10.10;1.98;;;12.80;99.90;;;;;;4953282;29;20054;-69
2022/11/02 09:10:27;;;;;;;8.05;1.60;;;12.80;99.90;;;;;;4946637;29;20051;-69
2022/11/02 09:12:53;;;;;;;10.32;2.00;;;12.80;99.90;;;;;;4945465;29;20040;-69
2022/11/02 09:15:19;;;;;;;11.10;2.30;;;12.80;99.90;;;;;;4949788;29;20078;-69
2022/11/02 09:17:48;;;;;;;9.00;2.13;;;12.90;99.90;;;;;;4950711;29;20042;-71
2022/11/02 09:20:16;;;;;;;12.50;2.00;;;12.90;99.90;;;;;;4939578;29;20047;-70
2022/11/02 09:22:42;;;;;;;10.90;1.63;;;12.90;99.90;;;;;;4947797;29;20043;-70
2022/11/02 09:25:08;;;;;;;10.80;1.85;;;13.00;99.90;;;;;;4953484;29;20035;-71
2022/11/02 09:27:34;;;;;;;11.15;2.47;;;12.90;99.90;;;;;;4953480;29;20566;-70
2022/11/02 09:29:59;;;;;;;6.07;1.83;;;13.00;99.90;;;;;;4948622;29;20122;-70
2022/11/02 09:32:25;;;;;;;9.25;1.70;;;12.90;99.90;;;;;;4945439;29;20126;-70
2022/11/02 09:34:51;;;;;;;9.20;1.80;;;13.00;99.90;;;;;;4953670;29;20485;-70
2022/11/02 09:37:17;;;;;;;12.00;1.73;;;13.10;99.90;;;;;;4945267;29;20067;-72
2022/11/02 09:39:42;;;;;;;9.40;1.83;;;13.10;99.90;;;;;;4954028;29;20081;-71
2022/11/02 09:42:36;;;;;;;9.40;1.90;;;13.10;99.90;;;;;;4954232;29;20544;-71
2022/11/02 09:45:05;;;;;;;10.57;1.65;;;13.00;99.90;;;;;;4945877;29;20039;-70
2022/11/02 09:47:40;;;;;;;8.73;1.52;;;13.10;99.90;;;;;;4939194;29;20071;-71
2022/11/02 09:50:12;;;;;;;10.00;2.10;;;13.10;99.90;;;;;;4949252;29;20046;-71
2022/11/02 09:52:42;;;;;;;8.82;1.75;;;13.20;99.90;;;;;;4941357;29;20093;-71
2022/11/02 09:55:17;;;;;;;6.78;1.70;;;13.20;99.90;;;;;;4946401;29;20178;-71
2022/11/02 09:57:47;;;;;;;10.93;1.80;;;13.20;99.90;;;;;;4953789;29;20035;-71
2022/11/02 10:00:14;;;;;;;10.88;1.95;;;13.20;99.90;;;;;;4950084;28;20109;-71
2022/11/02 10:03:08;;;;;;;9.75;1.98;;;13.20;99.90;;;;;;4947768;29;20035;-71
2022/11/02 10:06:02;;;;;;;8.50;1.40;;;13.30;99.90;;;;;;4940743;29;20063;-71
2022/11/02 10:08:31;;;;;;;8.82;1.55;;;13.50;99.90;;;;;;4947271;29;20059;-71
2022/11/02 10:11:20;;;;;;;8.80;2.15;;;13.60;99.90;;;;;;4949810;29;20047;-71
2022/11/02 10:13:50;;;;;;;7.53;1.30;;;13.70;99.90;;;;;;4946954;29;20042;-71
2022/11/02 10:16:21;;;;;;;11.40;2.05;;;13.70;99.90;;;;;;4952961;29;20061;-71
2022/11/02 10:18:50;;;;;;;7.97;1.75;;;13.70;99.90;;;;;;4942509;29;20142;-70
2022/11/02 10:21:23;;;;;;;7.65;2.00;;;13.70;99.90;;;;;;4950822;29;20038;-71
2022/11/02 10:23:52;;;;;;;6.32;1.58;;;13.70;99.90;;;;;;4953755;28;20182;-70
2022/11/02 10:26:26;;;;;;;9.15;1.77;;;13.80;99.90;;;;;;4936427;29;20036;-71
2022/11/02 10:29:08;;;;;;;8.13;1.70;;;13.80;99.90;;;;;;4944782;29;20502;-71
2022/11/02 10:31:33;;;;;;;8.60;1.50;;;13.80;99.90;;;;;;4946133;29;20120;-71
2022/11/02 10:34:19;;;;;;;13.30;1.80;;;13.90;99.90;;;;;;4944902;29;20123;-71
2022/11/02 10:37:12;;;;;;;8.88;1.90;;;14.00;99.90;;;;;;4947106;29;20051;-71
2022/11/02 10:40:10;;;;;;;13.88;2.00;;;14.10;99.90;;;;;;4945666;29;20051;-70
2022/11/02 10:43:13;;;;;;;8.82;1.88;;;14.20;99.90;;;;;;4936860;29;20065;-71
2022/11/02 10:45:57;;;;;;;10.70;1.98;;;14.40;99.90;;;;;;4944958;29;20567;-70
2022/11/02 10:48:35;;;;;;;6.78;1.50;;;14.60;99.90;;;;;;4952006;29;20047;-70
2022/11/02 10:51:09;;;;;;;12.45;1.80;;;14.60;99.90;;;;;;4947857;29;20046;-70
2022/11/02 10:53:55;;;;;;;10.05;1.73;;;14.50;99.90;;;;;;4947125;29;20047;-71
2022/11/02 10:56:23;;;;;;;10.18;2.00;;;14.40;99.90;;;;;;4937389;28;20043;-71
2022/11/02 10:58:59;;;;;;;9.55;1.48;;;14.50;99.90;;;;;;4940982;29;20044;-71
2022/11/02 11:01:26;;;;;;;8.60;1.85;;;14.40;99.90;;;;;;4949335;29;20070;-70
2022/11/02 11:04:01;;;;;;;9.07;1.90;;;14.50;99.90;;;;;;4955526;29;20050;-69
2022/11/02 11:06:34;;;;;;;8.15;1.98;;;14.30;99.90;;;;;;4955740;29;20560;-70
2022/11/02 11:09:04;;;;;;;10.23;1.88;;;14.20;99.90;;;;;;4935797;29;20054;-70
2022/11/02 11:11:36;;;;;;;8.88;1.88;;;14.30;99.90;;;;;;4947785;29;20035;-71
2022/11/02 11:14:16;;;;;;;7.72;2.08;;;14.20;99.90;;;;;;4936391;29;20074;-69
2022/11/02 11:16:43;;;;;;;9.50;1.90;;;14.10;99.90;;;;;;4941261;29;20493;-71
2022/11/02 11:19:23;;;;;;;8.98;1.85;;;14.00;99.90;;;;;;4946985;29;20051;-71
2022/11/02 11:21:49;;;;;;;9.05;1.75;;;14.10;99.90;;;;;;4942498;29;20040;-71
2022/11/02 11:24:28;;;;;;;6.15;1.83;;;14.20;99.90;;;;;;4947961;29;20122;-71
2022/11/02 11:27:00;;;;;;;12.60;1.83;;;14.30;99.90;;;;;;4954998;29;20085;-71
2022/11/02 11:29:30;;;;;;;8.95;1.45;;;14.50;99.90;;;;;;4943919;29;20047;-71
2022/11/02 11:31:55;;;;;;;7.68;1.60;;;14.70;99.90;;;;;;4938407;29;20134;-71
2022/11/02 11:34:25;;;;;;;9.00;1.83;;;14.70;99.90;;;;;;4953108;29;20490;-71
2022/11/02 11:36:51;;;;;;;7.57;1.85;;;14.70;99.90;;;;;;4955090;29;20047;-72
2022/11/02 11:39:28;;;;;;;9.80;1.80;;;14.70;99.90;;;;;;4956444;29;20482;-71
2022/11/02 11:41:54;;;;;;;7.22;1.65;;;14.40;99.90;;;;;;4943206;29;20044;-71
2022/11/02 11:44:20;;;;;;;7.90;1.48;;;14.20;99.90;;;;;;4951551;29;20101;-71
2022/11/02 11:46:50;;;;;;;8.00;1.75;;;14.20;99.90;;;;;;4954415;29;20071;-71
2022/11/02 11:49:22;;;;;;;10.25;1.50;;;14.30;99.90;;;;;;4946627;29;20460;-71
2022/11/02 11:51:50;;;;;;;8.90;1.83;;;14.40;99.90;;;;;;4951525;29;20031;-69
2022/11/02 11:54:28;;;;;;;10.18;1.58;;;14.50;99.90;;;;;;4955712;29;20035;-69
2022/11/02 11:56:56;;;;;;;9.13;1.60;;;14.40;99.90;;;;;;4951250;29;20086;-70
2022/11/02 11:59:41;;;;;;;10.02;2.08;;;14.40;99.90;;;;;;4947118;29;20043;-69
2022/11/02 12:02:20;;;;;;;5.95;1.55;;;14.50;99.90;;;;;;4954995;29;20383;-70
2022/11/02 12:04:46;;;;;;;9.20;1.70;;;14.50;99.90;;;;;;4955017;29;20036;-71
2022/11/02 12:07:31;;;;;;;8.75;2.15;;;14.40;99.90;;;;;;4950698;29;20501;-70
2022/11/02 12:10:04;;;;;;;9.23;1.60;;;14.60;99.90;;;;;;4949900;29;20122;-69
2022/11/02 12:12:41;;;;;;;10.05;1.77;;;14.80;99.90;;;;;;4918759;29;20049;-71
2022/11/02 12:15:10;;;;;;;6.28;1.70;;;14.80;99.90;;;;;;4949341;29;20130;-70
2022/11/02 12:18:05;;;;;;;5.88;1.75;;;14.70;99.90;;;;;;4954106;29;20047;-71
2022/11/02 12:21:12;;;;;;;8.85;1.50;;;14.40;99.90;;;;;;4943698;29;20133;-70
2022/11/02 12:23:54;;;;;;;11.95;1.40;;;14.30;99.90;;;;;;4940403;29;20047;-70
2022/11/02 12:26:25;;;;;;;9.27;1.50;;;14.20;99.90;;;;;;4952454;29;20548;-70
2022/11/02 12:29:06;;;;;;;;;;;14.10;99.90;;;;;;4947524;29;20071;-69
2022/11/02 12:31:37;;;;;;;10.10;2.08;;;14.10;99.90;;;;;;4941536;29;19997;-69
2022/11/02 12:34:22;;;;;;;7.55;1.30;;;14.00;99.90;;;;;;4944264;29;20073;-72
2022/11/02 12:36:53;;;;;;;11.15;2.10;;;14.10;99.90;;;;;;4948599;29;20058;-69
2022/11/02 12:39:22;;;;;;;8.80;1.63;;;14.10;99.90;;;;;;4947409;29;20094;-70
2022/11/02 12:42:17;;;;;;;7.25;1.70;;;14.30;99.90;;;;;;4947830;29;20047;-69
2022/11/02 12:44:49;;;;;;;5.75;1.40;;;14.40;99.90;;;;;;4947891;29;20051;-69
2022/11/02 12:47:26;;;;;;;5.72;1.40;;;14.40;99.90;;;;;;4948970;29;20229;-71
2022/11/02 12:50:02;;;;;;;8.20;1.90;;;14.50;99.90;;;;;;4952640;29;20093;-70
2022/11/02 12:52:30;;;;;;;9.65;2.30;;;14.70;99.90;;;;;;4952983;29;20082;-70
2022/11/02 12:54:59;;;;;;;10.18;1.50;;;14.90;99.90;;;;;;4942720;29;20102;-72
2022/11/02 12:57:29;;;;;;;9.40;2.20;;;15.20;99.90;;;;;;4946106;29;20142;-69
2022/11/02 13:00:00;;;;;;;9.07;1.80;;;15.30;99.90;;;;;;4951623;29;20398;-69
2022/11/02 13:02:36;;;;;;;9.93;1.48;;;15.20;99.90;;;;;;4954739;28;20039;-70
2022/11/02 13:05:12;;;;;;;8.95;1.63;;;15.10;99.90;;;;;;4944096;28;20062;-69
2022/11/02 13:07:55;;;;;;;9.43;1.55;;;15.00;99.90;;;;;;4951267;29;20051;-70
2022/11/02 13:10:27;;;;;;;8.75;1.63;;;14.90;99.90;;;;;;4954714;29;20040;-69
2022/11/02 13:12:58;;;;;;;5.88;1.40;;;14.90;99.90;;;;;;4943390;29;20050;-70